createdAt,value
2022-11-02T00:01:42.575Z,60.30
2022-11-02T00:04:12.897Z,59.70
2022-11-02T00:06:42.130Z,59.00
2022-11-02T00:09:10.946Z,60.00
2022-11-02T00:11:45.606Z,60.80
2022-11-02T00:14:15.650Z,60.60
2022-11-02T00:16:44.419Z,60.70
2022-11-02T00:19:13.347Z,59.80
2022-11-02T00:21:42.851Z,60.00
2022-11-02T00:24:15.182Z,60.30
2022-11-02T00:26:43.893Z,60.00
2022-11-02T00:29:32.710Z,59.90
2022-11-02T00:32:03.134Z,60.00
2022-11-02T00:34:35.166Z,58.80
2022-11-02T00:37:03.856Z,59.20
2022-11-02T00:39:32.444Z,59.00
2022-11-02T00:42:00.906Z,58.00
2022-11-02T00:44:31.396Z,58.90
2022-11-02T00:46:59.882Z,58.90
2022-11-02T00:49:28.796Z,58.60
2022-11-02T00:51:57.440Z,58.90
2022-11-02T00:54:28.664Z,58.50
2022-11-02T00:56:57.775Z,58.00
2022-11-02T00:59:26.551Z,58.20
2022-11-02T01:01:59.301Z,57.10
2022-11-02T01:04:29.245Z,57.90
2022-11-02T01:06:57.694Z,57.90
2022-11-02T01:09:26.466Z,58.60
2022-11-02T01:11:55.404Z,59.60
2022-11-02T01:14:26.498Z,61.10
2022-11-02T01:16:57.895Z,60.60
2022-11-02T01:19:28.131Z,60.30
2022-11-02T01:21:58.634Z,60.60
2022-11-02T01:24:27.144Z,60.00
2022-11-02T01:26:55.731Z,59.90
2022-11-02T01:29:25.139Z,60.80
2022-11-02T01:31:53.953Z,60.70
2022-11-02T01:34:22.822Z,61.00
2022-11-02T01:36:52.919Z,61.10
2022-11-02T01:39:21.431Z,61.40
2022-11-02T01:41:53.046Z,61.30
2022-11-02T01:44:29.493Z,60.80
2022-11-02T01:47:02.064Z,60.90
2022-11-02T01:49:33.785Z,62.30
2022-11-02T01:52:08.270Z,63.10
2022-11-02T01:54:42.879Z,63.70
2022-11-02T01:57:13.574Z,63.80
2022-11-02T01:59:47.611Z,63.70
2022-11-02T02:02:22.282Z,63.70
2022-11-02T02:04:54.819Z,63.20
2022-11-02T02:07:28.577Z,62.90
2022-11-02T02:09:57.247Z,62.60
2022-11-02T02:12:26.668Z,62.10
2022-11-02T02:14:58.573Z,61.80
2022-11-02T02:17:36.206Z,61.90
2022-11-02T02:20:12.920Z,61.70
2022-11-02T02:23:05.511Z,61.50
2022-11-02T02:26:01.184Z,61.70
2022-11-02T02:28:39.017Z,61.80
2022-11-02T02:31:13.962Z,61.50
2022-11-02T02:33:49.520Z,61.80
2022-11-02T02:36:25.070Z,61.80
2022-11-02T02:39:02.031Z,62.10
2022-11-02T02:41:38.992Z,62.00
2022-11-02T02:44:12.068Z,61.70
2022-11-02T02:46:46.625Z,62.40
2022-11-02T02:49:23.851Z,62.60
2022-11-02T02:51:54.469Z,63.00
2022-11-02T02:54:27.400Z,63.10
2022-11-02T02:56:59.794Z,63.20
2022-11-02T02:59:33.487Z,63.10
2022-11-02T03:02:06.752Z,63.30
2022-11-02T03:04:35.814Z,62.70
2022-11-02T03:07:05.098Z,62.90
2022-11-02T03:09:41.342Z,63.30
2022-11-02T03:12:23.296Z,63.60
2022-11-02T03:15:05.117Z,63.10
2022-11-02T03:17:41.578Z,62.90
2022-11-02T03:20:20.089Z,62.30
2022-11-02T03:22:54.289Z,62.70
2022-11-02T03:25:30.086Z,62.40
2022-11-02T03:28:04.651Z,61.50
2022-11-02T03:30:41.282Z,61.70
2022-11-02T03:36:38.119Z,61.50
2022-11-02T03:39:09.518Z,60.80
2022-11-02T03:41:43.256Z,61.40
2022-11-02T03:44:15.326Z,62.10
2022-11-02T03:46:45.936Z,62.60
2022-11-02T03:49:19.561Z,63.50
2022-11-02T03:51:51.119Z,63.50
2022-11-02T03:54:27.435Z,63.00
2022-11-02T03:57:00.833Z,63.40
2022-11-02T03:59:38.170Z,63.10
2022-11-02T04:02:20.134Z,63.10
2022-11-02T04:04:54.080Z,63.40
2022-11-02T04:07:52.422Z,63.30
2022-11-02T04:10:26.269Z,64.20
2022-11-02T04:13:12.484Z,65.50
2022-11-02T04:15:41.703Z,65.80
2022-11-02T04:18:29.287Z,66.40
2022-11-02T04:20:57.970Z,67.30
2022-11-02T04:23:45.922Z,66.60
2022-11-02T04:26:14.661Z,66.10
2022-11-02T04:28:46.361Z,65.60
2022-11-02T04:31:15.574Z,65.40
2022-11-02T04:33:44.200Z,65.20
2022-11-02T04:36:17.802Z,64.70
2022-11-02T04:38:51.037Z,64.00
2022-11-02T04:41:45.573Z,64.20
2022-11-02T04:44:28.963Z,64.50
2022-11-02T04:47:02.825Z,64.10
2022-11-02T04:49:35.509Z,63.40
2022-11-02T04:52:06.484Z,63.50
2022-11-02T04:54:36.797Z,63.80
2022-11-02T04:57:09.372Z,64.40
2022-11-02T04:59:38.180Z,64.50
2022-11-02T05:02:08.212Z,65.00
2022-11-02T05:04:38.775Z,65.70
2022-11-02T05:07:08.859Z,66.70
2022-11-02T05:09:38.572Z,67.60
2022-11-02T05:12:07.969Z,68.80
2022-11-02T05:14:36.915Z,70.60
2022-11-02T05:17:07.810Z,71.50
2022-11-02T05:19:39.271Z,72.40
2022-11-02T05:22:07.626Z,73.80
2022-11-02T05:24:40.883Z,73.40
2022-11-02T05:27:11.787Z,73.80
2022-11-02T05:29:42.972Z,73.60
2022-11-02T05:32:12.150Z,74.30
2022-11-02T05:34:43.080Z,74.60
2022-11-02T05:37:12.490Z,75.90
2022-11-02T05:39:43.143Z,76.20
2022-11-02T05:42:17.143Z,76.10
2022-11-02T05:44:49.996Z,78.50
2022-11-02T05:47:19.116Z,77.50
2022-11-02T05:49:49.170Z,78.70
2022-11-02T05:52:17.849Z,78.90
2022-11-02T05:54:46.446Z,80.20
2022-11-02T05:57:17.305Z,82.60
2022-11-02T05:59:49.195Z,83.20
2022-11-02T06:02:21.947Z,83.60
2022-11-02T06:04:53.755Z,83.60
2022-11-02T06:07:25.135Z,83.20
2022-11-02T06:09:53.715Z,84.10
2022-11-02T06:12:25.365Z,85.10
2022-11-02T06:14:53.731Z,85.10
2022-11-02T06:17:22.902Z,84.80
2022-11-02T06:19:58.336Z,84.60
2022-11-02T06:22:29.782Z,84.30
2022-11-02T06:24:58.471Z,83.80
2022-11-02T06:27:34.042Z,84.40
2022-11-02T06:30:02.938Z,83.80
2022-11-02T06:32:41.210Z,82.80
2022-11-02T06:35:14.887Z,81.70
2022-11-02T06:37:44.688Z,80.50
2022-11-02T06:40:18.357Z,79.50
2022-11-02T06:43:16.979Z,79.60
2022-11-02T06:45:52.552Z,79.70
2022-11-02T06:48:41.395Z,79.60
2022-11-02T06:51:32.690Z,79.50
2022-11-02T06:55:40.331Z,79.60
2022-11-02T06:58:17.191Z,79.60
2022-11-02T07:01:14.156Z,80.70
2022-11-02T07:08:29.767Z,82.60
2022-11-02T07:11:15.724Z,82.30
2022-11-02T07:14:06.436Z,83.00
2022-11-02T07:20:36.047Z,85.10
2022-11-02T07:23:10.802Z,86.30
2022-11-02T07:26:09.741Z,87.20
2022-11-02T07:28:59.343Z,87.00
2022-11-02T07:32:02.994Z,87.00
2022-11-02T07:34:47.979Z,87.40
2022-11-02T07:38:12.851Z,86.90
2022-11-02T07:41:12.503Z,85.50
2022-11-02T07:44:23.841Z,85.70
2022-11-02T07:47:10.410Z,85.30
2022-11-02T07:49:48.446Z,86.30
2022-11-02T07:52:20.986Z,86.70
2022-11-02T07:55:14.877Z,85.90
2022-11-02T07:58:08.473Z,85.90
2022-11-02T08:00:53.839Z,85.50
2022-11-02T08:38:08.074Z,82.30
2022-11-02T08:45:11.032Z,82.00
2022-11-02T08:48:38.727Z,81.90
2022-11-02T08:51:30.882Z,81.70
2022-11-02T08:54:29.168Z,81.60
2022-11-02T09:01:09.897Z,79.10
2022-11-02T09:08:41.567Z,78.70
2022-11-02T09:14:18.478Z,77.40
2022-11-02T09:16:53.461Z,77.20
2022-11-02T09:19:28.088Z,75.80
2022-11-02T09:25:31.032Z,76.10
2022-11-02T09:31:14.569Z,76.30
2022-11-02T09:34:05.233Z,76.20
2022-11-02T09:44:21.293Z,75.80
2022-11-02T09:48:10.912Z,74.10
2022-11-02T09:50:18.063Z,72.50
2022-11-02T09:53:45.531Z,72.60
2022-11-02T09:57:10.195Z,71.80
2022-11-02T10:00:22.004Z,71.30
2022-11-02T10:18:47.202Z,68.70
2022-11-02T10:22:56.178Z,67.30
2022-11-02T10:25:23.850Z,66.40
2022-11-02T10:31:56.118Z,65.50
2022-11-02T10:38:19.137Z,68.20
2022-11-02T10:42:04.386Z,64.60
2022-11-02T10:45:00.270Z,62.70
2022-11-02T10:47:58.094Z,61.20
2022-11-02T10:51:09.228Z,60.60
2022-11-02T11:24:57.738Z,52.60
2022-11-02T11:30:58.295Z,50.00
2022-11-02T11:33:18.678Z,51.00
2022-11-02T11:36:19.463Z,49.70
2022-11-02T11:39:06.128Z,49.60
2022-11-02T12:04:49.637Z,45.70
2022-11-02T12:07:55.974Z,44.70
2022-11-02T12:11:18.896Z,45.60
2022-11-02T12:15:12.716Z,46.60
2022-11-02T12:29:37.298Z,39.90
2022-11-02T12:37:40.337Z,43.90
2022-11-02T12:40:29.920Z,41.20
2022-11-02T12:43:13.991Z,40.60
2022-11-02T12:45:51.601Z,40.50
2022-11-02T12:48:34.045Z,38.90
2022-11-02T12:51:11.585Z,39.00
2022-11-02T12:54:28.434Z,38.40
2022-11-02T12:57:21.625Z,37.70
2022-11-02T13:00:36.099Z,39.60
2022-11-02T13:08:32.899Z,36.80
2022-11-02T13:11:26.846Z,39.00
2022-11-02T13:14:22.517Z,37.10
2022-11-02T13:17:11.918Z,36.40
2022-11-02T13:19:53.892Z,34.60
2022-11-02T13:23:28.000Z,33.70
2022-11-02T13:26:57.390Z,37.00
2022-11-02T13:35:15.158Z,36.90
2022-11-02T13:54:48.944Z,35.30
2022-11-02T14:01:46.825Z,34.40
2022-11-02T14:05:33.708Z,33.70
2022-11-02T14:13:51.038Z,34.60
2022-11-02T14:17:19.439Z,32.40
2022-11-02T14:19:56.550Z,29.90
2022-11-02T14:22:38.422Z,28.50
2022-11-02T14:30:02.426Z,32.10
2022-11-02T14:33:02.892Z,30.10
2022-11-02T14:35:58.599Z,30.00
2022-11-02T14:39:26.461Z,29.80
2022-11-02T14:44:07.824Z,30.70
2022-11-02T14:51:24.881Z,32.80
2022-11-02T15:00:07.277Z,32.40
2022-11-02T15:02:42.026Z,33.50
2022-11-02T15:05:28.837Z,33.10
2022-11-02T15:08:08.705Z,33.80
2022-11-02T15:10:41.086Z,36.80
2022-11-02T15:13:47.887Z,34.00
2022-11-02T15:16:18.114Z,35.50
2022-11-02T15:18:48.155Z,36.40
2022-11-02T15:21:29.888Z,36.40
2022-11-02T15:24:20.145Z,36.10
2022-11-02T15:26:53.887Z,35.10
2022-11-02T15:29:37.150Z,36.80
2022-11-02T15:32:09.911Z,34.20
2022-11-02T15:34:42.890Z,35.70
2022-11-02T15:37:17.924Z,38.80
2022-11-02T15:39:51.721Z,39.90
2022-11-02T15:42:47.673Z,41.40
2022-11-02T15:45:59.374Z,42.90
2022-11-02T17:10:18.972Z,52.00
2022-11-02T17:15:23.467Z,53.70
2022-11-02T23:02:54.524Z,52.70
2022-11-02T23:05:24.454Z,52.10
